sensor_id;sensor_type;location;lat;lon;timestamp;temperature;humidity
17007;DHT22;8620;51.168;4.154;2024-03-02T07:35:18;7.30;99.90
17007;DHT22;8620;51.168;4.154;2024-03-02T07:37:44;7.40;99.90
17007;DHT22;8620;51.168;4.154;2024-03-02T07:40:11;7.50;99.90
17007;DHT22;8620;51.168;4.154;2024-03-02T07:42:38;7.70;99.90
17007;DHT22;8620;51.168;4.154;2024-03-02T07:45:06;7.60;99.90
17007;DHT22;8620;51.168;4.154;2024-03-02T07:47:34;7.70;99.90
17007;DHT22;8620;51.168;4.154;2024-03-02T07:50:03;7.90;99.90
17007;DHT22;8620;51.168;4.154;2024-03-02T07:52:32;7.90;99.90
17007;DHT22;8620;51.168;4.154;2024-03-02T07:54:59;8.20;99.90
17007;DHT22;8620;51.168;4.154;2024-03-02T07:57:27;8.10;99.90
17007;DHT22;8620;51.168;4.154;2024-03-02T07:59:56;8.10;99.90
17007;DHT22;8620;51.168;4.154;2024-03-02T08:02:25;8.40;99.90
17007;DHT22;8620;51.168;4.154;2024-03-02T08:04:50;8.50;99.90
17007;DHT22;8620;51.168;4.154;2024-03-02T08:07:17;8.70;99.90
17007;DHT22;8620;51.168;4.154;2024-03-02T08:09:42;8.80;99.90
17007;DHT22;8620;51.168;4.154;2024-03-02T08:12:09;8.90;99.90
17007;DHT22;8620;51.168;4.154;2024-03-02T08:14:37;9.00;99.90
17007;DHT22;8620;51.168;4.154;2024-03-02T08:17:06;9.10;99.90
17007;DHT22;8620;51.168;4.154;2024-03-02T08:19:35;9.40;99.90
17007;DHT22;8620;51.168;4.154;2024-03-02T08:22:02;9.60;99.90
17007;DHT22;8620;51.168;4.154;2024-03-02T08:24:28;9.60;99.90
17007;DHT22;8620;51.168;4.154;2024-03-02T08:26:54;9.90;99.90
17007;DHT22;8620;51.168;4.154;2024-03-02T08:29:20;9.80;99.90
17007;DHT22;8620;51.168;4.154;2024-03-02T08:31:46;9.90;99.90
17007;DHT22;8620;51.168;4.154;2024-03-02T08:34:15;10.10;99.90
17007;DHT22;8620;51.168;4.154;2024-03-02T08:36:40;10.30;99.90
17007;DHT22;8620;51.168;4.154;2024-03-02T08:39:08;10.60;99.90
17007;DHT22;8620;51.168;4.154;2024-03-02T08:41:49;10.70;99.90
17007;DHT22;8620;51.168;4.154;2024-03-02T08:44:16;10.40;99.90
17007;DHT22;8620;51.168;4.154;2024-03-02T08:46:42;10.10;99.90
17007;DHT22;8620;51.168;4.154;2024-03-02T08:49:09;10.40;99.90
17007;DHT22;8620;51.168;4.154;2024-03-02T08:51:43;10.80;99.90
17007;DHT22;8620;51.168;4.154;2024-03-02T08:54:09;10.70;99.90
17007;DHT22;8620;51.168;4.154;2024-03-02T08:56:35;10.40;99.90
17007;DHT22;8620;51.168;4.154;2024-03-02T08:59:01;10.50;99.90
17007;DHT22;8620;51.168;4.154;2024-03-02T09:01:27;10.40;99.90
17007;DHT22;8620;51.168;4.154;2024-03-02T09:04:02;10.20;99.90
17007;DHT22;8620;51.168;4.154;2024-03-02T09:06:31;9.90;99.90
17007;DHT22;8620;51.168;4.154;2024-03-02T09:08:57;10.10;99.90
17007;DHT22;8620;51.168;4.154;2024-03-02T09:11:23;10.60;99.90
17007;DHT22;8620;51.168;4.154;2024-03-02T09:13:49;10.70;99.90
17007;DHT22;8620;51.168;4.154;2024-03-02T09:16:17;11.10;99.90
17007;DHT22;8620;51.168;4.154;2024-03-02T09:18:46;11.00;99.90
17007;DHT22;8620;51.168;4.154;2024-03-02T09:21:14;10.50;99.90
17007;DHT22;8620;51.168;4.154;2024-03-02T09:23:40;10.80;99.90
17007;DHT22;8620;51.168;4.154;2024-03-02T09:26:09;10.80;99.90
17007;DHT22;8620;51.168;4.154;2024-03-02T09:28:46;11.00;99.90
17007;DHT22;8620;51.168;4.154;2024-03-02T09:31:13;11.20;99.90
17007;DHT22;8620;51.168;4.154;2024-03-02T09:33:39;11.40;99.90
17007;DHT22;8620;51.168;4.154;2024-03-02T09:36:05;11.50;99.90
17007;DHT22;8620;51.168;4.154;2024-03-02T09:38:34;11.60;99.90
17007;DHT22;8620;51.168;4.154;2024-03-02T09:41:01;11.60;99.90
17007;DHT22;8620;51.168;4.154;2024-03-02T09:43:27;11.80;99.90
17007;DHT22;8620;51.168;4.154;2024-03-02T09:45:53;11.90;99.90
17007;DHT22;8620;51.168;4.154;2024-03-02T09:48:24;11.80;99.90
17007;DHT22;8620;51.168;4.154;2024-03-02T09:50:53;11.50;99.90
17007;DHT22;8620;51.168;4.154;2024-03-02T09:53:19;11.60;99.90
17007;DHT22;8620;51.168;4.154;2024-03-02T09:55:48;11.70;99.90
17007;DHT22;8620;51.168;4.154;2024-03-02T09:58:15;11.80;99.90
17007;DHT22;8620;51.168;4.154;2024-03-02T10:00:40;11.70;99.90
17007;DHT22;8620;51.168;4.154;2024-03-02T10:03:13;11.80;99.90
17007;DHT22;8620;51.168;4.154;2024-03-02T10:05:42;12.10;99.90
17007;DHT22;8620;51.168;4.154;2024-03-02T10:08:08;12.40;99.90
17007;DHT22;8620;51.168;4.154;2024-03-02T10:10:38;11.90;99.90
17007;DHT22;8620;51.168;4.154;2024-03-02T10:13:13;11.80;99.90
17007;DHT22;8620;51.168;4.154;2024-03-02T10:15:40;11.50;99.90
17007;DHT22;8620;51.168;4.154;2024-03-02T10:18:13;11.20;99.90
17007;DHT22;8620;51.168;4.154;2024-03-02T10:20:42;10.90;99.90
17007;DHT22;8620;51.168;4.154;2024-03-02T10:33:24;10.70;99.90
17007;DHT22;8620;51.168;4.154;2024-03-02T10:35:53;10.90;99.90
17007;DHT22;8620;51.168;4.154;2024-03-02T10:38:19;11.20;99.90
17007;DHT22;8620;51.168;4.154;2024-03-02T10:40:49;11.50;99.90
17007;DHT22;8620;51.168;4.154;2024-03-02T10:43:15;11.60;99.90
17007;DHT22;8620;51.168;4.154;2024-03-02T10:45:43;11.40;99.90
17007;DHT22;8620;51.168;4.154;2024-03-02T10:48:13;11.40;99.90
17007;DHT22;8620;51.168;4.154;2024-03-02T10:50:41;11.40;99.90
17007;DHT22;8620;51.168;4.154;2024-03-02T10:53:07;11.50;99.90
17007;DHT22;8620;51.168;4.154;2024-03-02T10:55:38;11.50;99.90
17007;DHT22;8620;51.168;4.154;2024-03-02T10:58:04;11.60;99.90
17007;DHT22;8620;51.168;4.154;2024-03-02T11:00:34;11.60;99.90
17007;DHT22;8620;51.168;4.154;2024-03-02T11:03:06;12.00;99.90
17007;DHT22;8620;51.168;4.154;2024-03-02T11:05:44;12.10;99.90
17007;DHT22;8620;51.168;4.154;2024-03-02T11:08:18;12.10;99.90
17007;DHT22;8620;51.168;4.154;2024-03-02T11:10:51;12.20;99.90
17007;DHT22;8620;51.168;4.154;2024-03-02T11:13:27;12.00;99.90
17007;DHT22;8620;51.168;4.154;2024-03-02T11:16:03;12.00;99.90
17007;DHT22;8620;51.168;4.154;2024-03-02T11:18:35;12.20;99.90
17007;DHT22;8620;51.168;4.154;2024-03-02T11:21:02;12.30;99.90
17007;DHT22;8620;51.168;4.154;2024-03-02T11:23:33;12.40;99.90
17007;DHT22;8620;51.168;4.154;2024-03-02T11:26:19;12.70;99.90
17007;DHT22;8620;51.168;4.154;2024-03-02T11:28:48;12.50;99.90
17007;DHT22;8620;51.168;4.154;2024-03-02T11:31:13;12.80;99.90
17007;DHT22;8620;51.168;4.154;2024-03-02T11:33:42;13.10;99.90
17007;DHT22;8620;51.168;4.154;2024-03-02T11:36:09;13.00;99.90
17007;DHT22;8620;51.168;4.154;2024-03-02T11:38:35;12.90;99.90
17007;DHT22;8620;51.168;4.154;2024-03-02T11:41:07;13.20;99.90
17007;DHT22;8620;51.168;4.154;2024-03-02T11:43:42;13.20;99.90
17007;DHT22;8620;51.168;4.154;2024-03-02T11:46:10;13.10;99.90
17007;DHT22;8620;51.168;4.154;2024-03-02T11:48:38;13.20;99.90
17007;DHT22;8620;51.168;4.154;2024-03-02T11:51:05;13.20;99.90
17007;DHT22;8620;51.168;4.154;2024-03-02T11:53:31;13.10;99.90
17007;DHT22;8620;51.168;4.154;2024-03-02T11:56:01;13.00;99.90
17007;DHT22;8620;51.168;4.154;2024-03-02T11:58:27;12.90;99.90
17007;DHT22;8620;51.168;4.154;2024-03-02T12:00:54;12.50;99.90
17007;DHT22;8620;51.168;4.154;2024-03-02T12:03:24;12.70;99.90
17007;DHT22;8620;51.168;4.154;2024-03-02T12:05:55;12.50;99.90
17007;DHT22;8620;51.168;4.154;2024-03-02T12:08:21;12.40;99.90
17007;DHT22;8620;51.168;4.154;2024-03-02T12:11:15;12.50;99.90
17007;DHT22;8620;51.168;4.154;2024-03-02T12:13:41;12.40;99.90
17007;DHT22;8620;51.168;4.154;2024-03-02T12:16:07;12.40;99.90
17007;DHT22;8620;51.168;4.154;2024-03-02T12:18:36;12.20;99.90
17007;DHT22;8620;51.168;4.154;2024-03-02T12:21:04;12.10;99.90
17007;DHT22;8620;51.168;4.154;2024-03-02T12:23:34;12.10;99.90
17007;DHT22;8620;51.168;4.154;2024-03-02T12:26:00;12.10;99.90
17007;DHT22;8620;51.168;4.154;2024-03-02T12:28:26;12.00;99.90
17007;DHT22;8620;51.168;4.154;2024-03-02T12:30:55;12.10;99.90
17007;DHT22;8620;51.168;4.154;2024-03-02T12:33:24;12.30;99.90
17007;DHT22;8620;51.168;4.154;2024-03-02T12:35:50;12.20;99.90
17007;DHT22;8620;51.168;4.154;2024-03-02T12:38:16;12.40;99.90
17007;DHT22;8620;51.168;4.154;2024-03-02T12:40:47;12.40;99.90
17007;DHT22;8620;51.168;4.154;2024-03-02T12:43:13;12.40;99.90
17007;DHT22;8620;51.168;4.154;2024-03-02T12:45:42;12.50;99.90
17007;DHT22;8620;51.168;4.154;2024-03-02T12:48:08;12.60;99.90
17007;DHT22;8620;51.168;4.154;2024-03-02T12:50:34;12.60;99.90
17007;DHT22;8620;51.168;4.154;2024-03-02T12:53:00;12.60;99.90
17007;DHT22;8620;51.168;4.154;2024-03-02T12:55:27;12.70;99.90
17007;DHT22;8620;51.168;4.154;2024-03-02T12:57:54;12.70;99.90
17007;DHT22;8620;51.168;4.154;2024-03-02T13:00:21;12.90;99.90
17007;DHT22;8620;51.168;4.154;2024-03-02T13:02:47;12.80;99.90
17007;DHT22;8620;51.168;4.154;2024-03-02T13:05:16;13.00;99.90
17007;DHT22;8620;51.168;4.154;2024-03-02T13:07:42;13.10;99.90
17007;DHT22;8620;51.168;4.154;2024-03-02T13:10:08;12.90;99.90
17007;DHT22;8620;51.168;4.154;2024-03-02T13:12:35;13.00;99.90
17007;DHT22;8620;51.168;4.154;2024-03-02T13:15:02;13.00;99.90
17007;DHT22;8620;51.168;4.154;2024-03-02T13:17:29;12.90;99.90
17007;DHT22;8620;51.168;4.154;2024-03-02T13:19:56;12.90;99.90
17007;DHT22;8620;51.168;4.154;2024-03-02T13:22:24;12.90;99.90
17007;DHT22;8620;51.168;4.154;2024-03-02T13:24:51;13.00;99.90
17007;DHT22;8620;51.168;4.154;2024-03-02T13:27:17;13.00;99.90
17007;DHT22;8620;51.168;4.154;2024-03-02T13:29:52;13.00;99.90
17007;DHT22;8620;51.168;4.154;2024-03-02T13:32:18;13.10;99.90
17007;DHT22;8620;51.168;4.154;2024-03-02T13:35:01;13.00;99.90
17007;DHT22;8620;51.168;4.154;2024-03-02T13:37:30;12.90;99.90
17007;DHT22;8620;51.168;4.154;2024-03-02T13:40:05;12.90;99.90
17007;DHT22;8620;51.168;4.154;2024-03-02T13:42:32;12.80;99.90
17007;DHT22;8620;51.168;4.154;2024-03-02T13:44:58;12.80;99.90
17007;DHT22;8620;51.168;4.154;2024-03-02T13:47:28;12.70;99.90
17007;DHT22;8620;51.168;4.154;2024-03-02T13:49:57;12.70;99.90
17007;DHT22;8620;51.168;4.154;2024-03-02T13:52:23;12.80;99.90
17007;DHT22;8620;51.168;4.154;2024-03-02T13:54:52;12.70;99.90
17007;DHT22;8620;51.168;4.154;2024-03-02T13:57:19;12.60;99.90
17007;DHT22;8620;51.168;4.154;2024-03-02T13:59:45;12.60;99.90
17007;DHT22;8620;51.168;4.154;2024-03-02T14:02:12;12.50;99.90
17007;DHT22;8620;51.168;4.154;2024-03-02T14:04:38;12.50;99.90
17007;DHT22;8620;51.168;4.154;2024-03-02T14:07:05;12.60;99.90
17007;DHT22;8620;51.168;4.154;2024-03-02T14:09:34;12.50;99.90
17007;DHT22;8620;51.168;4.154;2024-03-02T14:12:00;12.50;99.90
17007;DHT22;8620;51.168;4.154;2024-03-02T14:14:26;12.60;99.90
17007;DHT22;8620;51.168;4.154;2024-03-02T14:16:53;12.60;99.90
17007;DHT22;8620;51.168;4.154;2024-03-02T14:19:31;12.60;99.90
17007;DHT22;8620;51.168;4.154;2024-03-02T14:21:58;12.70;99.90
17007;DHT22;8620;51.168;4.154;2024-03-02T14:24:28;12.70;99.90
17007;DHT22;8620;51.168;4.154;2024-03-02T14:26:55;12.70;99.90
17007;DHT22;8620;51.168;4.154;2024-03-02T14:29:27;12.60;99.90
17007;DHT22;8620;51.168;4.154;2024-03-02T14:31:56;12.60;99.90
17007;DHT22;8620;51.168;4.154;2024-03-02T14:34:22;12.70;99.90
17007;DHT22;8620;51.168;4.154;2024-03-02T14:36:50;12.70;99.90
17007;DHT22;8620;51.168;4.154;2024-03-02T14:39:16;12.50;99.90
17007;DHT22;8620;51.168;4.154;2024-03-02T14:41:44;12.60;99.90
17007;DHT22;8620;51.168;4.154;2024-03-02T14:44:10;12.60;99.90
17007;DHT22;8620;51.168;4.154;2024-03-02T14:46:36;12.70;99.90
17007;DHT22;8620;51.168;4.154;2024-03-02T14:49:02;12.70;99.90
17007;DHT22;8620;51.168;4.154;2024-03-02T14:51:27;12.40;99.90
17007;DHT22;8620;51.168;4.154;2024-03-02T14:53:55;12.30;99.90
17007;DHT22;8620;51.168;4.154;2024-03-02T14:56:27;12.20;99.90
17007;DHT22;8620;51.168;4.154;2024-03-02T14:58:57;12.00;99.90
17007;DHT22;8620;51.168;4.154;2024-03-02T15:01:23;12.00;99.90
17007;DHT22;8620;51.168;4.154;2024-03-02T15:03:50;11.90;99.90
17007;DHT22;8620;51.168;4.154;2024-03-02T15:06:17;11.80;99.90
17007;DHT22;8620;51.168;4.154;2024-03-02T15:08:43;11.90;99.90
17007;DHT22;8620;51.168;4.154;2024-03-02T15:11:12;11.90;99.90
17007;DHT22;8620;51.168;4.154;2024-03-02T15:13:41;11.80;99.90
17007;DHT22;8620;51.168;4.154;2024-03-02T15:16:08;11.80;99.90
17007;DHT22;8620;51.168;4.154;2024-03-02T15:18:33;11.80;99.90
17007;DHT22;8620;51.168;4.154;2024-03-02T15:21:00;11.90;99.90
17007;DHT22;8620;51.168;4.154;2024-03-02T15:23:26;11.80;99.90
17007;DHT22;8620;51.168;4.154;2024-03-02T15:25:52;11.70;99.90
17007;DHT22;8620;51.168;4.154;2024-03-02T15:28:18;11.70;99.90
17007;DHT22;8620;51.168;4.154;2024-03-02T15:30:46;11.60;99.90
17007;DHT22;8620;51.168;4.154;2024-03-02T15:33:12;11.50;99.90
17007;DHT22;8620;51.168;4.154;2024-03-02T15:35:38;11.50;99.90
17007;DHT22;8620;51.168;4.154;2024-03-02T15:38:04;11.60;99.90
17007;DHT22;8620;51.168;4.154;2024-03-02T15:40:34;11.60;99.90
17007;DHT22;8620;51.168;4.154;2024-03-02T15:43:00;11.40;99.90
17007;DHT22;8620;51.168;4.154;2024-03-02T15:45:26;11.50;99.90
17007;DHT22;8620;51.168;4.154;2024-03-02T15:47:58;11.50;99.90
17007;DHT22;8620;51.168;4.154;2024-03-02T15:50:26;11.50;99.90
17007;DHT22;8620;51.168;4.154;2024-03-02T15:52:52;11.60;99.90
17007;DHT22;8620;51.168;4.154;2024-03-02T15:55:18;11.60;99.90
17007;DHT22;8620;51.168;4.154;2024-03-02T15:57:44;11.70;99.90
17007;DHT22;8620;51.168;4.154;2024-03-02T16:00:13;11.90;99.90
17007;DHT22;8620;51.168;4.154;2024-03-02T16:02:40;11.90;99.90
17007;DHT22;8620;51.168;4.154;2024-03-02T16:05:06;11.90;99.90
17007;DHT22;8620;51.168;4.154;2024-03-02T16:07:32;11.90;99.90
17007;DHT22;8620;51.168;4.154;2024-03-02T16:09:58;11.90;99.90
17007;DHT22;8620;51.168;4.154;2024-03-02T16:12:34;11.80;99.90
17007;DHT22;8620;51.168;4.154;2024-03-02T16:15:00;11.80;99.90
17007;DHT22;8620;51.168;4.154;2024-03-02T16:17:28;11.80;99.90
17007;DHT22;8620;51.168;4.154;2024-03-02T16:20:30;11.80;99.90
17007;DHT22;8620;51.168;4.154;2024-03-02T16:22:55;11.90;99.90
17007;DHT22;8620;51.168;4.154;2024-03-02T16:25:21;11.80;99.90
17007;DHT22;8620;51.168;4.154;2024-03-02T16:28:02;11.90;99.90
17007;DHT22;8620;51.168;4.154;2024-03-02T16:30:29;11.90;99.90
17007;DHT22;8620;51.168;4.154;2024-03-02T16:33:04;11.90;99.90
17007;DHT22;8620;51.168;4.154;2024-03-02T16:35:30;12.10;99.90
17007;DHT22;8620;51.168;4.154;2024-03-02T16:37:56;12.30;99.90
17007;DHT22;8620;51.168;4.154;2024-03-02T16:40:22;12.40;99.90
17007;DHT22;8620;51.168;4.154;2024-03-02T16:42:48;12.30;99.90
17007;DHT22;8620;51.168;4.154;2024-03-02T16:45:14;12.10;99.90
17007;DHT22;8620;51.168;4.154;2024-03-02T16:47:41;12.10;99.90
17007;DHT22;8620;51.168;4.154;2024-03-02T16:50:07;12.10;99.90
17007;DHT22;8620;51.168;4.154;2024-03-02T16:52:37;12.20;99.90
17007;DHT22;8620;51.168;4.154;2024-03-02T16:55:06;12.00;99.90
17007;DHT22;8620;51.168;4.154;2024-03-02T16:57:32;12.00;99.90
17007;DHT22;8620;51.168;4.154;2024-03-02T17:00:05;12.20;99.90
17007;DHT22;8620;51.168;4.154;2024-03-02T17:02:34;12.30;99.90
17007;DHT22;8620;51.168;4.154;2024-03-02T17:05:00;12.20;99.90
17007;DHT22;8620;51.168;4.154;2024-03-02T17:07:26;12.20;99.90
17007;DHT22;8620;51.168;4.154;2024-03-02T17:09:55;12.20;99.90
17007;DHT22;8620;51.168;4.154;2024-03-02T17:12:26;12.10;99.90
17007;DHT22;8620;51.168;4.154;2024-03-02T17:14:55;12.10;99.90
17007;DHT22;8620;51.168;4.154;2024-03-02T17:17:21;12.30;99.90
17007;DHT22;8620;51.168;4.154;2024-03-02T17:19:56;12.30;99.90
17007;DHT22;8620;51.168;4.154;2024-03-02T17:22:22;12.30;99.90
17007;DHT22;8620;51.168;4.154;2024-03-02T17:24:49;12.30;99.90
17007;DHT22;8620;51.168;4.154;2024-03-02T17:27:18;12.30;99.90
17007;DHT22;8620;51.168;4.154;2024-03-02T17:29:44;12.30;99.90
17007;DHT22;8620;51.168;4.154;2024-03-02T17:32:13;12.30;99.90
17007;DHT22;8620;51.168;4.154;2024-03-02T17:34:44;12.30;99.90
17007;DHT22;8620;51.168;4.154;2024-03-02T17:37:15;12.30;99.90
17007;DHT22;8620;51.168;4.154;2024-03-02T17:39:41;12.10;99.90
17007;DHT22;8620;51.168;4.154;2024-03-02T17:42:07;12.10;99.90
17007;DHT22;8620;51.168;4.154;2024-03-02T17:44:33;12.00;99.90
17007;DHT22;8620;51.168;4.154;2024-03-02T17:47:23;12.00;99.90
17007;DHT22;8620;51.168;4.154;2024-03-02T17:49:50;12.00;99.90
17007;DHT22;8620;51.168;4.154;2024-03-02T17:52:18;11.90;99.90
17007;DHT22;8620;51.168;4.154;2024-03-02T17:54:44;11.90;99.90
17007;DHT22;8620;51.168;4.154;2024-03-02T17:57:10;11.90;99.90
17007;DHT22;8620;51.168;4.154;2024-03-02T17:59:36;11.90;99.90
17007;DHT22;8620;51.168;4.154;2024-03-02T18:02:03;12.00;99.90
17007;DHT22;8620;51.168;4.154;2024-03-02T18:04:29;11.90;99.90
17007;DHT22;8620;51.168;4.154;2024-03-02T18:06:55;11.90;99.90
17007;DHT22;8620;51.168;4.154;2024-03-02T18:09:24;11.90;99.90
17007;DHT22;8620;51.168;4.154;2024-03-02T18:11:52;11.90;99.90
17007;DHT22;8620;51.168;4.154;2024-03-02T18:14:19;12.00;99.90
17007;DHT22;8620;51.168;4.154;2024-03-02T18:16:45;12.20;99.90
17007;DHT22;8620;51.168;4.154;2024-03-02T18:19:11;12.20;99.90
17007;DHT22;8620;51.168;4.154;2024-03-02T18:21:37;12.20;99.90
17007;DHT22;8620;51.168;4.154;2024-03-02T18:24:07;12.10;99.90
17007;DHT22;8620;51.168;4.154;2024-03-02T18:26:33;12.20;99.90
17007;DHT22;8620;51.168;4.154;2024-03-02T18:29:00;12.20;99.90
17007;DHT22;8620;51.168;4.154;2024-03-02T18:31:26;12.30;99.90
17007;DHT22;8620;51.168;4.154;2024-03-02T18:33:52;12.30;99.90
17007;DHT22;8620;51.168;4.154;2024-03-02T18:36:18;12.20;99.90
17007;DHT22;8620;51.168;4.154;2024-03-02T18:38:44;12.00;99.90
17007;DHT22;8620;51.168;4.154;2024-03-02T18:41:13;12.00;99.90
17007;DHT22;8620;51.168;4.154;2024-03-02T18:43:39;11.90;99.90
17007;DHT22;8620;51.168;4.154;2024-03-02T18:46:07;12.00;99.90
17007;DHT22;8620;51.168;4.154;2024-03-02T18:48:35;12.10;99.90
17007;DHT22;8620;51.168;4.154;2024-03-02T18:51:06;12.00;99.90
17007;DHT22;8620;51.168;4.154;2024-03-02T18:53:33;11.90;99.90
17007;DHT22;8620;51.168;4.154;2024-03-02T18:55:58;11.90;99.90
17007;DHT22;8620;51.168;4.154;2024-03-02T18:58:24;11.80;99.90
17007;DHT22;8620;51.168;4.154;2024-03-02T19:00:51;11.80;99.90
17007;DHT22;8620;51.168;4.154;2024-03-02T19:03:28;12.00;99.90
17007;DHT22;8620;51.168;4.154;2024-03-02T19:06:02;12.00;99.90
17007;DHT22;8620;51.168;4.154;2024-03-02T19:08:32;12.10;99.90
17007;DHT22;8620;51.168;4.154;2024-03-02T19:10:57;12.10;99.90
17007;DHT22;8620;51.168;4.154;2024-03-02T19:13:24;12.10;99.90
17007;DHT22;8620;51.168;4.154;2024-03-02T19:15:51;12.00;99.90
17007;DHT22;8620;51.168;4.154;2024-03-02T19:18:17;12.00;99.90
17007;DHT22;8620;51.168;4.154;2024-03-02T19:20:43;12.10;99.90
17007;DHT22;8620;51.168;4.154;2024-03-02T19:23:09;12.00;99.90
17007;DHT22;8620;51.168;4.154;2024-03-02T19:25:35;12.00;99.90
17007;DHT22;8620;51.168;4.154;2024-03-02T19:28:00;11.90;99.90
17007;DHT22;8620;51.168;4.154;2024-03-02T19:30:26;11.80;99.90
17007;DHT22;8620;51.168;4.154;2024-03-02T19:32:52;11.80;99.90
17007;DHT22;8620;51.168;4.154;2024-03-02T19:35:21;11.90;99.90
17007;DHT22;8620;51.168;4.154;2024-03-02T19:37:47;11.90;99.90
17007;DHT22;8620;51.168;4.154;2024-03-02T19:40:13;11.90;99.90
17007;DHT22;8620;51.168;4.154;2024-03-02T19:42:39;11.90;99.90
17007;DHT22;8620;51.168;4.154;2024-03-02T19:45:05;12.00;99.90
17007;DHT22;8620;51.168;4.154;2024-03-02T19:47:31;12.10;99.90
17007;DHT22;8620;51.168;4.154;2024-03-02T19:50:04;12.00;99.90
17007;DHT22;8620;51.168;4.154;2024-03-02T19:52:30;12.10;99.90
17007;DHT22;8620;51.168;4.154;2024-03-02T19:54:56;12.10;99.90
17007;DHT22;8620;51.168;4.154;2024-03-02T19:57:26;12.00;99.90
17007;DHT22;8620;51.168;4.154;2024-03-02T19:59:56;12.10;99.90
17007;DHT22;8620;51.168;4.154;2024-03-02T20:02:22;12.10;99.90
17007;DHT22;8620;51.168;4.154;2024-03-02T20:04:52;12.00;99.90
17007;DHT22;8620;51.168;4.154;2024-03-02T20:07:18;11.90;99.90
17007;DHT22;8620;51.168;4.154;2024-03-02T20:09:44;11.90;99.90
17007;DHT22;8620;51.168;4.154;2024-03-02T20:12:31;11.90;99.90
17007;DHT22;8620;51.168;4.154;2024-03-02T20:14:59;11.90;99.90
17007;DHT22;8620;51.168;4.154;2024-03-02T20:17:25;11.90;99.90
17007;DHT22;8620;51.168;4.154;2024-03-02T20:19:51;11.90;99.90
17007;DHT22;8620;51.168;4.154;2024-03-02T20:22:17;11.90;99.90
17007;DHT22;8620;51.168;4.154;2024-03-02T20:24:43;11.80;99.90
17007;DHT22;8620;51.168;4.154;2024-03-02T20:27:09;11.90;99.90
17007;DHT22;8620;51.168;4.154;2024-03-02T20:29:38;11.70;99.90
17007;DHT22;8620;51.168;4.154;2024-03-02T20:32:04;11.90;99.90
17007;DHT22;8620;51.168;4.154;2024-03-02T20:34:30;11.80;99.90
17007;DHT22;8620;51.168;4.154;2024-03-02T20:36:58;11.80;99.90
17007;DHT22;8620;51.168;4.154;2024-03-02T20:39:27;11.80;99.90
17007;DHT22;8620;51.168;4.154;2024-03-02T20:41:53;11.80;99.90
17007;DHT22;8620;51.168;4.154;2024-03-02T20:44:19;11.80;99.90
17007;DHT22;8620;51.168;4.154;2024-03-02T20:46:47;11.80;99.90
17007;DHT22;8620;51.168;4.154;2024-03-02T20:49:13;11.80;99.90
17007;DHT22;8620;51.168;4.154;2024-03-02T20:51:42;11.90;99.90
17007;DHT22;8620;51.168;4.154;2024-03-02T20:54:07;11.90;99.90
17007;DHT22;8620;51.168;4.154;2024-03-02T20:56:33;11.80;99.90
